Time;durP1;ratioP1;P1;durP2;ratioP2;P2;SDS_P1;SDS_P2;PMS_P1;PMS_P2;Temp;Humidity;BMP_temperature;BMP_pressure;BME280_temperature;BME280_humidity;BME280_pressure;Samples;Min_cycle;Max_cycle;Signal;HPM_P1;HPM_P2
2022/06/11 00:00:44;;;;;;;32.17;16.35;;;;;;;19.31;67.65;101595.81;4992491;28;119589;-79
2022/06/11 00:03:11;;;;;;;39.40;16.92;;;;;;;19.40;67.60;101606.00;4986903;28;120220;-79
2022/06/11 00:05:37;;;;;;;31.60;16.15;;;;;;;19.34;67.54;101597.63;4974961;28;121241;-79
2022/06/11 00:08:04;;;;;;;40.17;18.52;;;;;;;19.41;67.68;101599.22;4984590;28;120986;-79
2022/06/11 00:10:29;;;;;;;37.67;16.92;;;;;;;19.41;67.77;101613.91;4995114;28;120488;-79
2022/06/11 00:12:55;;;;;;;37.38;15.55;;;;;;;19.39;67.86;101596.91;4995349;28;119548;-78
2022/06/11 00:15:24;;;;;;;35.88;15.15;;;;;;;19.36;67.41;101597.13;5012732;27;119370;-80
2022/06/11 00:17:52;;;;;;;39.85;16.77;;;;;;;19.39;67.47;101596.91;4977900;28;119557;-79
2022/06/11 00:20:19;;;;;;;35.45;14.68;;;;;;;19.40;67.60;101598.47;5003576;28;120453;-78
2022/06/11 00:22:45;;;;;;;35.50;15.98;;;;;;;19.41;67.45;101593.66;4980753;28;119983;-79
2022/06/11 00:25:11;;;;;;;30.63;15.68;;;;;;;19.44;67.41;101604.56;5005658;28;119543;-79
2022/06/11 00:27:37;;;;;;;35.03;15.63;;;;;;;19.45;67.64;101597.00;4989863;27;119585;-80
2022/06/11 00:30:05;;;;;;;38.67;16.58;;;;;;;19.38;67.58;101583.50;5007290;28;119586;-79
2022/06/11 00:32:31;;;;;;;36.85;16.15;;;;;;;19.46;67.66;101595.72;4988390;28;119361;-79
2022/06/11 00:35:02;;;;;;;39.65;16.10;;;;;;;19.41;67.35;101576.97;5010600;28;120730;-79
2022/06/11 00:37:28;;;;;;;32.53;15.48;;;;;;;19.45;67.32;101597.75;4986907;28;119773;-80
2022/06/11 00:39:54;;;;;;;32.08;15.75;;;;;;;19.40;67.27;101584.56;5013897;28;119813;-77
2022/06/11 00:42:25;;;;;;;36.13;16.15;;;;;;;19.40;67.31;101584.56;4973936;28;119501;-79
2022/06/11 00:45:19;;;;;;;33.70;16.83;;;;;;;19.40;67.33;101590.13;4979700;28;119986;-79
2022/06/11 00:47:51;;;;;;;37.40;16.38;;;;;;;19.37;67.45;101582.72;4990733;28;119461;-79
2022/06/11 00:50:23;;;;;;;38.67;17.08;;;;;;;19.37;67.52;101588.28;5004614;28;119551;-79
2022/06/11 00:52:50;;;;;;;39.63;17.65;;;;;;;19.35;67.42;101578.91;4981162;28;119770;-79
2022/06/11 00:55:43;;;;;;;37.13;16.83;;;;;;;19.35;67.43;101588.00;4987042;28;121048;-79
2022/06/11 00:58:14;;;;;;;30.80;16.23;;;;;;;19.30;67.46;101572.03;4976905;28;119616;-79
2022/06/11 01:00:48;;;;;;;34.00;16.70;;;;;;;19.32;67.50;101580.66;4995380;28;120119;-78
2022/06/11 01:03:18;;;;;;;45.75;18.95;;;;;;;19.30;67.55;101583.16;4975641;28;120114;-80
2022/06/11 01:06:14;;;;;;;38.72;17.58;;;;;;;19.28;67.35;101580.09;4990019;28;119885;-79
2022/06/11 01:08:40;;;;;;;36.25;17.13;;;;;;;19.27;67.72;101576.56;4979557;28;121340;-79
2022/06/11 01:11:27;;;;;;;31.73;16.63;;;;;;;19.28;67.77;101574.53;4978568;28;119750;-79
2022/06/11 01:14:21;;;;;;;38.10;17.35;;;;;;;19.28;67.86;101580.09;4981234;28;119536;-79
2022/06/11 01:17:14;;;;;;;34.90;16.98;;;;;;;19.25;68.19;101567.94;4976185;28;122243;-79
2022/06/11 01:20:19;;;;;;;38.47;17.33;;;;;;;19.29;67.96;101559.38;4960174;28;119469;-79
2022/06/11 01:23:16;;;;;;;37.30;16.67;;;;;;;19.28;67.89;101563.41;4984537;28;120741;-78
2022/06/11 01:26:07;;;;;;;41.50;17.52;;;;;;;19.26;68.07;101568.72;4996308;28;122384;-78
2022/06/11 01:28:36;;;;;;;40.67;17.00;;;;;;;19.25;67.69;101567.19;4989296;28;121514;-78
2022/06/11 01:31:17;;;;;;;36.53;17.45;;;;;;;19.23;67.76;101562.13;4995273;28;120070;-78
2022/06/11 01:34:04;;;;;;;37.92;17.58;;;;;;;19.22;67.65;101559.81;4987939;27;119637;-79
2022/06/11 01:36:36;;;;;;;41.80;16.10;;;;;;;19.21;67.84;101553.50;4994478;28;119364;-78
2022/06/11 01:39:24;;;;;;;41.67;17.98;;;;;;;19.22;67.89;101551.47;4978797;28;120930;-79
2022/06/11 01:42:04;;;;;;;40.13;16.77;;;;;;;19.16;67.94;101545.06;4976317;28;119727;-79
2022/06/11 01:44:34;;;;;;;33.97;16.55;;;;;;;19.21;68.05;101552.72;4977382;28;119581;-79
2022/06/11 01:47:03;;;;;;;32.88;15.80;;;;;;;19.22;67.97;101552.25;4988282;28;120108;-79
2022/06/11 01:49:29;;;;;;;37.13;15.38;;;;;;;19.23;67.89;101547.44;4998227;28;119638;-79
2022/06/11 01:52:22;;;;;;;45.88;17.10;;;;;;;19.23;67.94;101550.22;4984053;28;119563;-79
2022/06/11 01:55:27;;;;;;;34.73;14.80;;;;;;;19.22;67.98;101545.91;4969933;28;119831;-79
2022/06/11 01:58:02;;;;;;;38.00;15.52;;;;;;;19.23;67.94;101533.53;4977881;28;121651;-80
2022/06/11 02:00:57;;;;;;;34.92;14.98;;;;;;;19.23;67.98;101534.28;4998917;28;119651;-80
2022/06/11 02:03:26;;;;;;;35.28;15.23;;;;;;;19.23;67.74;101536.31;4980624;28;119955;-80
2022/06/11 02:06:04;;;;;;;38.65;15.13;;;;;;;19.23;67.81;101539.09;4993987;28;119714;-79
2022/06/11 02:08:48;;;;;;;35.67;14.65;;;;;;;19.23;67.93;101533.53;4988334;28;120148;-79
2022/06/11 02:11:23;;;;;;;33.80;13.93;;;;;;;19.22;67.90;101532.78;4984925;28;119457;-80
2022/06/11 02:14:17;;;;;;;34.78;14.45;;;;;;;19.17;67.60;101518.81;4955852;28;121351;-78
2022/06/11 02:16:54;;;;;;;33.58;14.02;;;;;;;19.19;67.67;101535.78;4993799;28;119955;-79
2022/06/11 02:19:25;;;;;;;37.78;13.82;;;;;;;19.15;67.74;101527.63;4991266;28;118798;-79
2022/06/11 02:21:58;;;;;;;28.40;12.38;;;;;;;19.16;67.99;101531.94;4975013;28;119400;-78
2022/06/11 02:24:31;;;;;;;34.97;13.80;;;;;;;19.16;68.11;101539.50;4975560;28;119495;-79
2022/06/11 02:27:05;;;;;;;32.17;14.40;;;;;;;19.16;68.09;101531.16;4975516;28;119769;-80
2022/06/11 02:29:33;;;;;;;31.65;13.73;;;;;;;19.07;68.28;101514.66;4990518;28;119930;-80
2022/06/11 02:32:07;;;;;;;38.85;13.82;;;;;;;19.18;68.12;101525.91;4977961;28;120057;-80
2022/06/11 02:34:38;;;;;;;32.28;12.90;;;;;;;19.18;68.03;101525.91;4980590;28;120055;-82
2022/06/11 02:37:11;;;;;;;30.65;12.05;;;;;;;19.14;67.75;101522.56;4982254;28;119839;-81
2022/06/11 02:39:41;;;;;;;32.78;13.43;;;;;;;19.14;67.87;101530.91;4975597;28;119941;-80
2022/06/11 02:42:11;;;;;;;25.05;11.68;;;;;;;19.12;67.76;101527.84;4988870;28;119458;-79
2022/06/11 02:44:37;;;;;;;31.67;12.18;;;;;;;19.07;67.53;101531.31;4987289;28;120520;-79
2022/06/11 02:47:03;;;;;;;30.88;12.18;;;;;;;19.08;67.62;101533.63;4987061;28;119868;-79
2022/06/11 02:49:36;;;;;;;34.58;12.82;;;;;;;19.06;67.84;101529.81;5001473;28;120230;-81
2022/06/11 02:52:09;;;;;;;30.40;12.35;;;;;;;19.03;67.96;101526.00;4992637;27;119635;-82
2022/06/11 02:54:35;;;;;;;38.57;12.67;;;;;;;19.02;68.26;101530.78;4964485;28;119494;-79
2022/06/11 02:57:02;;;;;;;29.88;12.07;;;;;;;19.04;68.02;101532.31;4986029;28;119302;-79
2022/06/11 02:59:29;;;;;;;42.45;12.45;;;;;;;18.98;68.03;101530.25;4997860;28;119543;-79
2022/06/11 03:02:05;;;;;;;30.60;12.63;;;;;;;19.01;67.99;101537.59;4988728;27;119960;-80
2022/06/11 03:04:31;;;;;;;28.67;11.95;;;;;;;19.01;68.05;101534.81;4982073;28;119488;-79
2022/06/11 03:06:58;;;;;;;32.30;11.63;;;;;;;18.99;68.13;101531.75;4977382;28;120068;-79
2022/06/11 03:09:30;;;;;;;28.88;10.88;;;;;;;18.98;68.01;101526.69;4978488;28;119727;-82
2022/06/11 03:11:59;;;;;;;35.80;11.95;;;;;;;18.94;68.25;101526.91;4977592;28;119705;-79
2022/06/11 03:14:28;;;;;;;28.35;12.13;;;;;;;18.90;68.60;101511.66;4994782;28;120244;-79
2022/06/11 03:16:54;;;;;;;31.90;12.65;;;;;;;18.94;68.78;101520.59;4996339;28;119439;-79
2022/06/11 03:19:20;;;;;;;32.35;11.50;;;;;;;18.90;68.62;101512.44;4982318;27;119473;-79
2022/06/11 03:21:50;;;;;;;29.83;11.90;;;;;;;18.97;68.62;101528.72;4970309;28;122038;-79
2022/06/11 03:24:16;;;;;;;30.77;11.55;;;;;;;18.93;68.56;101521.84;4992074;28;118705;-79
2022/06/11 03:26:43;;;;;;;36.17;11.68;;;;;;;18.87;68.43;101518.22;5003221;28;120102;-79
2022/06/11 03:29:10;;;;;;;29.35;12.07;;;;;;;18.90;68.69;101522.78;4995472;28;120982;-81
2022/06/11 03:31:36;;;;;;;29.90;11.75;;;;;;;18.95;68.89;101534.00;4996511;28;119766;-82
2022/06/11 03:34:03;;;;;;;32.58;12.18;;;;;;;18.97;69.04;101525.94;4990358;28;119666;-81
2022/06/11 03:36:29;;;;;;;31.63;12.93;;;;;;;18.94;68.86;101518.56;4956425;28;120422;-81
2022/06/11 03:38:55;;;;;;;27.10;11.50;;;;;;;18.97;69.12;101528.72;4975639;28;119540;-82
2022/06/11 03:41:23;;;;;;;26.70;11.25;;;;;;;19.01;69.04;101525.72;4978223;28;120028;-80
2022/06/11 03:43:50;;;;;;;25.80;11.02;;;;;;;19.07;69.05;101525.78;4989878;28;119446;-81
2022/06/11 03:46:18;;;;;;;27.70;11.45;;;;;;;19.12;69.31;101533.41;4997591;28;119531;-81
2022/06/11 03:48:44;;;;;;;30.70;12.10;;;;;;;19.13;69.09;101526.59;4996755;28;120159;-81
2022/06/11 03:51:10;;;;;;;35.45;12.15;;;;;;;19.15;69.06;101526.84;4998449;28;119458;-82
2022/06/11 03:53:37;;;;;;;28.35;11.02;;;;;;;19.17;69.06;101519.56;4988856;28;119526;-81
2022/06/11 03:56:05;;;;;;;25.77;10.95;;;;;;;19.18;69.05;101521.09;4987392;28;119471;-80
2022/06/11 03:58:32;;;;;;;27.80;11.00;;;;;;;19.21;69.14;101524.91;5002683;28;120054;-80
2022/06/11 04:01:16;;;;;;;28.67;12.32;;;;;;;19.22;69.44;101527.22;4979963;28;119557;-80
2022/06/11 04:03:48;;;;;;;;;;;;;;;19.23;69.06;101533.53;4983295;28;121181;-80
2022/06/11 04:06:16;;;;;;;23.30;11.68;;;;;;;19.22;69.29;101520.88;4980039;28;119890;-81
2022/06/11 04:08:43;;;;;;;26.50;11.70;;;;;;;19.21;69.26;101509.00;4977619;28;119869;-81
2022/06/11 04:11:12;;;;;;;29.75;11.63;;;;;;;19.32;69.40;101527.81;4979003;28;119520;-80
2022/06/11 04:13:40;;;;;;;33.00;12.07;;;;;;;19.30;69.35;101505.28;4978879;28;119404;-80
2022/06/11 04:16:07;;;;;;;31.48;11.10;;;;;;;19.39;69.02;101521.03;4977687;28;122593;-81
2022/06/11 04:18:37;;;;;;;25.63;10.95;;;;;;;19.41;68.99;101521.31;4986069;28;119665;-80
2022/06/11 04:21:06;;;;;;;24.85;11.63;;;;;;;19.39;69.30;101519.00;4978407;28;119565;-80
2022/06/11 04:23:32;;;;;;;29.65;11.65;;;;;;;19.45;69.05;101527.44;4991812;28;120137;-80
2022/06/11 04:26:04;;;;;;;28.40;12.00;;;;;;;19.47;69.17;101531.25;5001474;28;120327;-80
2022/06/11 04:28:32;;;;;;;27.85;11.48;;;;;;;19.51;69.49;101537.34;4997524;28;121113;-80
2022/06/11 04:31:00;;;;;;;25.50;11.60;;;;;;;19.55;69.42;101537.16;4998259;28;119456;-80
2022/06/11 04:33:26;;;;;;;34.30;13.07;;;;;;;19.58;69.26;101536.16;4978052;28;119490;-81
2022/06/11 04:35:55;;;;;;;28.17;11.30;;;;;;;19.61;69.38;101526.81;4986910;28;120195;-80
2022/06/11 04:38:21;;;;;;;27.48;11.68;;;;;;;19.64;69.45;101534.22;4995901;28;119857;-80
2022/06/11 04:40:47;;;;;;;24.05;11.57;;;;;;;19.63;69.30;101533.41;4982749;28;119530;-80
2022/06/11 04:43:16;;;;;;;31.30;11.73;;;;;;;19.67;69.46;101533.22;4981253;28;120317;-81
2022/06/11 04:45:42;;;;;;;23.25;11.45;;;;;;;19.69;69.22;101535.50;4980961;28;119812;-80
2022/06/11 04:48:09;;;;;;;24.17;11.88;;;;;;;19.63;69.25;101522.28;4985970;28;119547;-80
2022/06/11 04:50:35;;;;;;;25.73;11.82;;;;;;;19.73;69.40;101534.03;4988014;28;119705;-81
2022/06/11 04:53:02;;;;;;;25.95;11.55;;;;;;;19.75;69.34;101533.53;4992475;28;120502;-81
2022/06/11 04:55:28;;;;;;;28.80;12.18;;;;;;;19.78;69.36;101524.94;4999786;28;119894;-81
2022/06/11 04:57:54;;;;;;;27.83;10.95;;;;;;;19.76;69.39;101521.13;5002015;28;119589;-81
2022/06/11 05:00:24;;;;;;;27.58;11.82;;;;;;;19.83;69.52;101524.22;4990858;28;120145;-81
2022/06/11 05:02:53;;;;;;;28.33;11.93;;;;;;;19.83;69.34;101515.13;4979447;28;119325;-81
2022/06/11 05:05:22;;;;;;;32.17;11.63;;;;;;;19.84;69.52;101519.41;4981370;28;119819;-81
2022/06/11 05:07:49;;;;;;;27.05;11.98;;;;;;;19.87;69.21;101524.78;4982126;28;119783;-82
2022/06/11 05:10:19;;;;;;;25.80;11.93;;;;;;;19.83;69.28;101517.91;4983805;28;120228;-80
2022/06/11 05:12:44;;;;;;;29.45;12.07;;;;;;;19.91;69.33;101525.31;4982521;28;119569;-81
2022/06/11 05:15:11;;;;;;;30.35;13.05;;;;;;;19.92;69.24;101526.84;4980703;28;119986;-81
2022/06/11 05:17:37;;;;;;;27.05;11.50;;;;;;;19.92;69.03;101521.28;4966244;28;119917;-81
2022/06/11 05:20:04;;;;;;;29.58;11.38;;;;;;;19.90;69.32;101517.47;4980683;28;119584;-81
2022/06/11 05:22:30;;;;;;;25.58;11.60;;;;;;;19.93;69.17;101528.38;4980260;28;121602;-80
2022/06/11 05:24:56;;;;;;;27.35;12.13;;;;;;;19.99;69.24;101541.56;4996516;28;119713;-80
2022/06/11 05:27:24;;;;;;;22.58;11.40;;;;;;;20.02;69.40;101543.34;4997668;28;119750;-80
2022/06/11 05:29:59;;;;;;;26.60;10.95;;;;;;;20.08;69.34;101544.16;5001481;28;119803;-79
2022/06/11 05:32:29;;;;;;;22.63;11.15;;;;;;;20.13;69.18;101549.78;4956634;28;120151;-80
2022/06/11 05:35:00;;;;;;;21.92;11.20;;;;;;;20.14;69.58;101537.38;4977111;28;120723;-79
2022/06/11 05:37:26;;;;;;;24.42;10.13;;;;;;;20.20;69.65;101537.41;4994139;28;119640;-80
2022/06/11 05:39:53;;;;;;;28.88;11.32;;;;;;;20.19;69.17;101517.16;4990585;28;119825;-78
2022/06/11 05:42:22;;;;;;;27.50;10.55;;;;;;;20.22;69.02;101523.75;4977951;28;120985;-78
2022/06/11 05:44:48;;;;;;;23.73;10.32;;;;;;;20.25;68.99;101519.97;4979749;28;119651;-78
2022/06/11 05:47:18;;;;;;;22.08;10.02;;;;;;;20.30;69.05;101526.81;4985125;28;119644;-79
2022/06/11 05:49:47;;;;;;;23.02;10.05;;;;;;;20.34;69.09;101538.47;4999223;28;121347;-79
2022/06/11 05:52:17;;;;;;;30.20;10.27;;;;;;;20.39;69.11;101537.78;5022320;28;120170;-79
2022/06/11 05:54:45;;;;;;;26.75;11.00;;;;;;;20.44;68.71;101534.28;4986467;27;119600;-78
2022/06/11 05:57:15;;;;;;;23.65;10.07;;;;;;;20.48;68.72;101534.81;4978153;28;119890;-78
2022/06/11 05:59:46;;;;;;;25.60;10.55;;;;;;;20.50;68.67;101529.50;4997422;28;119799;-79
2022/06/11 06:02:15;;;;;;;21.30;9.35;;;;;;;20.53;68.45;101528.50;5005536;27;120345;-78
2022/06/11 06:04:40;;;;;;;30.65;11.38;;;;;;;20.56;68.11;101533.06;4979403;28;120068;-79
2022/06/11 06:07:08;;;;;;;25.42;10.00;;;;;;;20.61;68.12;101528.78;4976707;28;119911;-78
2022/06/11 06:09:34;;;;;;;23.70;10.18;;;;;;;20.68;67.68;101529.06;4943843;28;121129;-79
2022/06/11 06:12:00;;;;;;;26.42;10.75;;;;;;;20.69;67.99;101530.59;4977996;28;120034;-78
2022/06/11 06:14:26;;;;;;;24.52;11.30;;;;;;;20.65;67.23;101520.94;4981495;28;119867;-79
2022/06/11 06:16:52;;;;;;;24.55;10.32;;;;;;;20.77;67.00;101534.41;4993954;28;120374;-78
2022/06/11 06:19:21;;;;;;;22.80;10.95;;;;;;;20.79;67.21;101534.69;4977380;28;120173;-79
2022/06/11 06:21:50;;;;;;;27.67;11.43;;;;;;;20.82;67.21;101528.13;4977591;28;120460;-79
2022/06/11 06:24:16;;;;;;;25.60;11.85;;;;;;;20.84;67.24;101530.41;4979493;28;119841;-78
2022/06/11 06:26:41;;;;;;;30.17;13.73;;;;;;;20.93;66.82;101543.34;4996498;28;120532;-79
2022/06/11 06:29:07;;;;;;;28.60;12.77;;;;;;;20.96;66.75;101545.91;4997209;28;120151;-78
2022/06/11 06:31:33;;;;;;;24.58;12.25;;;;;;;20.97;66.92;101544.63;4995570;28;120057;-78
2022/06/11 06:34:01;;;;;;;26.35;12.60;;;;;;;21.06;66.75;101549.25;4996566;28;120131;-79
2022/06/11 06:36:31;;;;;;;23.83;11.40;;;;;;;21.07;66.34;101539.63;4981133;28;120929;-78
2022/06/11 06:38:58;;;;;;;23.63;12.63;;;;;;;21.08;66.05;101544.69;4975772;28;120142;-79
2022/06/11 06:41:24;;;;;;;22.33;11.68;;;;;;;21.09;66.11;101551.78;4959198;28;121377;-79
2022/06/11 06:43:50;;;;;;;23.70;11.80;;;;;;;21.10;66.30;101541.38;4985471;28;120248;-78
2022/06/11 06:46:17;;;;;;;22.98;11.25;;;;;;;21.01;65.62;101536.03;4988506;28;119832;-78
2022/06/11 06:48:44;;;;;;;22.20;11.00;;;;;;;21.00;65.80;101537.28;4989194;28;119927;-79
2022/06/11 06:51:11;;;;;;;25.88;11.07;;;;;;;21.05;65.58;101547.69;4978699;28;120407;-79
2022/06/11 06:53:40;;;;;;;25.10;10.93;;;;;;;20.97;65.42;101532.72;4988035;28;120464;-79
2022/06/11 06:56:07;;;;;;;26.77;10.57;;;;;;;21.03;65.48;101547.44;4974568;28;121416;-79
2022/06/11 06:58:33;;;;;;;22.70;9.93;;;;;;;21.03;65.77;101531.47;4983210;28;120243;-79
2022/06/11 07:01:00;;;;;;;23.35;9.85;;;;;;;21.08;65.84;101541.91;4993729;28;121284;-78
2022/06/11 07:03:26;;;;;;;23.00;9.95;;;;;;;21.05;65.64;101530.97;4970531;28;120157;-78
2022/06/11 07:05:54;;;;;;;26.88;9.38;;;;;;;21.18;65.39;101533.28;4976800;28;119718;-78
2022/06/11 07:08:20;;;;;;;25.27;8.85;;;;;;;21.22;64.89;101531.00;4991103;28;123014;-79
2022/06/11 07:10:52;;;;;;;23.80;7.20;;;;;;;21.17;64.07;101523.38;4991860;28;120629;-79
2022/06/11 07:13:19;;;;;;;18.42;5.60;;;;;;;21.17;63.74;101537.34;4994472;28;120123;-78
2022/06/11 07:15:48;;;;;;;21.20;6.63;;;;;;;21.09;63.27;101534.28;4975838;28;120991;-78
2022/06/11 07:18:15;;;;;;;18.00;5.70;;;;;;;21.10;63.12;101539.38;4976546;28;119749;-79
2022/06/11 07:20:42;;;;;;;21.85;6.47;;;;;;;21.04;63.38;101533.00;4980446;28;120230;-78
2022/06/11 07:23:35;;;;;;;17.05;6.05;;;;;;;21.04;63.38;101535.78;4979680;28;120554;-79
2022/06/11 07:26:04;;;;;;;17.05;5.32;;;;;;;21.00;63.16;101526.13;4981660;28;120094;-78
2022/06/11 07:28:35;;;;;;;20.60;5.60;;;;;;;21.08;63.59;101533.53;4994449;28;120831;-78
2022/06/11 07:31:01;;;;;;;17.40;5.68;;;;;;;21.09;63.64;101515.53;4996760;28;119738;-78
2022/06/11 07:33:27;;;;;;;16.20;5.68;;;;;;;21.18;63.45;101525.69;4983071;28;120876;-78
2022/06/11 07:35:54;;;;;;;19.67;5.32;;;;;;;21.20;62.90;101533.53;4975629;28;119992;-78
2022/06/11 07:38:21;;;;;;;17.88;5.07;;;;;;;21.23;62.62;101535.31;4989885;28;120004;-79
2022/06/11 07:40:47;;;;;;;17.42;4.80;;;;;;;21.24;62.50;101540.44;5013632;28;120036;-79
2022/06/11 07:43:14;;;;;;;16.52;5.20;;;;;;;21.27;61.65;101541.44;5003128;28;119815;-79
2022/06/11 07:45:42;;;;;;;21.25;5.10;;;;;;;21.29;61.49;101536.13;4996372;28;119765;-78
2022/06/11 07:48:10;;;;;;;21.00;5.13;;;;;;;21.30;61.73;101537.66;4992985;28;121916;-79
2022/06/11 07:50:39;;;;;;;16.67;4.80;;;;;;;21.31;61.89;101539.94;4996216;28;119964;-79
2022/06/11 07:53:07;;;;;;;18.40;5.00;;;;;;;21.35;61.89;101534.13;4995237;28;120435;-79
2022/06/11 07:55:34;;;;;;;18.60;4.57;;;;;;;21.41;62.13;101535.63;4993777;28;122720;-78
2022/06/11 07:58:00;;;;;;;14.57;4.75;;;;;;;21.41;61.60;101532.84;4962865;28;119848;-79
2022/06/11 08:00:35;;;;;;;14.13;4.50;;;;;;;21.44;61.08;101543.00;5005367;28;120631;-79
2022/06/11 08:03:03;;;;;;;17.63;5.07;;;;;;;21.44;61.48;101548.59;5010102;28;120991;-79
2022/06/11 08:05:30;;;;;;;19.77;4.82;;;;;;;21.46;61.16;101542.50;4973618;28;120348;-78
2022/06/11 08:07:56;;;;;;;15.88;4.60;;;;;;;21.39;60.86;101532.59;4973335;28;120310;-79
2022/06/11 08:10:24;;;;;;;10.65;4.47;;;;;;;21.50;60.62;101536.66;4974125;28;119832;-78
2022/06/11 08:12:50;;;;;;;15.75;4.90;;;;;;;21.57;61.02;101545.31;4976017;28;120634;-79
2022/06/11 08:15:19;;;;;;;14.27;4.72;;;;;;;21.61;60.68;101531.09;4991282;28;121111;-79
2022/06/11 08:17:45;;;;;;;19.75;5.97;;;;;;;21.77;60.96;101538.72;4979961;28;120747;-79
2022/06/11 08:20:15;;;;;;;14.40;5.18;;;;;;;21.87;60.55;101547.59;4974958;28;120624;-78
2022/06/11 08:22:40;;;;;;;22.10;5.85;;;;;;;21.94;59.68;101547.06;4974859;28;121521;-79
2022/06/11 08:25:06;;;;;;;17.65;5.43;;;;;;;22.00;59.13;101548.59;4983378;28;120758;-79
2022/06/11 08:27:33;;;;;;;18.27;5.47;;;;;;;21.96;59.46;101545.28;4973593;28;123031;-79
2022/06/11 08:29:59;;;;;;;14.65;4.70;;;;;;;21.91;59.00;101551.66;4988467;28;120756;-79
2022/06/11 08:32:25;;;;;;;17.90;5.25;;;;;;;22.05;59.48;101573.00;4984115;28;120838;-79
2022/06/11 08:34:51;;;;;;;15.60;4.57;;;;;;;22.00;58.11;101562.56;4977967;28;120722;-79
2022/06/11 08:37:16;;;;;;;14.98;4.20;;;;;;;21.99;58.59;101563.81;4989470;28;120242;-79
2022/06/11 08:39:46;;;;;;;11.88;3.75;;;;;;;21.95;57.50;101549.34;5012827;27;121237;-79
2022/06/11 08:42:26;;;;;;;13.57;3.45;;;;;;;22.15;58.59;101569.94;4993784;28;121146;-79
2022/06/11 08:44:52;;;;;;;16.67;3.85;;;;;;;22.24;57.28;101566.88;4962522;28;121206;-79
2022/06/11 08:47:21;;;;;;;16.60;4.32;;;;;;;22.30;57.25;101573.97;4978293;28;120587;-79
2022/06/11 08:49:51;;;;;;;14.98;3.97;;;;;;;22.36;56.95;101562.78;4973203;28;121175;-79
2022/06/11 08:52:21;;;;;;;18.40;4.03;;;;;;;22.38;56.85;101565.06;4973292;28;121298;-79
2022/06/11 08:54:48;;;;;;;15.38;3.78;;;;;;;22.47;57.54;101565.53;4990369;28;121657;-80
2022/06/11 08:57:42;;;;;;;14.65;4.18;;;;;;;22.60;56.55;101565.78;4988757;28;121766;-79
2022/06/11 09:00:27;;;;;;;;;;;;;;;22.70;56.80;101579.44;4992464;28;121525;-79
2022/06/11 09:02:53;;;;;;;19.02;4.43;;;;;;;22.78;56.88;101570.03;4990254;28;122975;-79
2022/06/11 09:05:31;;;;;;;18.27;4.25;;;;;;;22.91;57.16;101569.47;4993465;28;121491;-79
2022/06/11 09:08:27;;;;;;;15.57;3.95;;;;;;;22.99;57.31;101576.06;4973038;28;121812;-79
2022/06/11 09:11:21;;;;;;;19.30;4.72;;;;;;;22.95;56.54;101586.78;4986215;28;122463;-79
2022/06/11 09:13:52;;;;;;;22.17;4.90;;;;;;;22.82;55.66;101578.94;4987707;28;122311;-79
2022/06/11 09:16:48;;;;;;;16.33;4.43;;;;;;;22.77;56.50;101579.69;4993334;28;123307;-79
2022/06/11 09:19:51;;;;;;;20.23;4.80;;;;;;;22.78;56.70;101575.63;4991856;28;121169;-79
2022/06/11 09:22:16;;;;;;;18.73;5.45;;;;;;;22.76;56.60;101575.38;4976029;28;121228;-79
2022/06/11 09:25:07;;;;;;;18.67;5.05;;;;;;;22.74;56.82;101585.56;4976499;28;121653;-79
2022/06/11 09:27:48;;;;;;;20.83;5.10;;;;;;;22.70;56.31;101587.84;4970647;28;121455;-79
2022/06/11 09:30:19;;;;;;;21.33;5.45;;;;;;;22.66;57.02;101588.88;4980878;28;121220;-79
2022/06/11 09:32:57;;;;;;;18.63;5.00;;;;;;;22.60;56.59;101593.72;4988935;28;121876;-79
2022/06/11 09:35:32;;;;;;;22.70;6.28;;;;;;;22.55;56.79;101591.72;4999155;28;121229;-79
2022/06/11 09:38:06;;;;;;;20.80;5.40;;;;;;;22.49;56.81;101590.22;4973566;28;121505;-79
2022/06/11 09:40:54;;;;;;;23.38;5.95;;;;;;;22.49;57.09;101604.19;4991053;28;121578;-79
2022/06/11 09:43:42;;;;;;;23.95;5.85;;;;;;;22.52;57.80;101606.72;4995238;28;121515;-79
2022/06/11 09:46:21;;;;;;;24.45;6.35;;;;;;;22.54;57.56;101614.59;4992993;28;122143;-79
2022/06/11 09:49:31;;;;;;;22.65;6.30;;;;;;;22.53;57.67;101610.28;4993278;28;121608;-79
2022/06/11 09:52:24;;;;;;;23.65;5.65;;;;;;;22.57;57.56;101607.97;4985168;28;122585;-79
2022/06/11 09:55:00;;;;;;;22.60;6.32;;;;;;;22.59;57.01;101603.41;4988782;28;122112;-79
2022/06/11 09:57:58;;;;;;;29.15;6.60;;;;;;;22.61;57.62;101612.03;4992639;28;121424;-79
2022/06/11 10:00:26;;;;;;;29.67;6.55;;;;;;;22.62;57.62;101605.16;5005752;28;122113;-79
2022/06/11 10:06:10;;;;;;;21.50;5.63;;;;;;;22.60;57.80;101610.50;4991869;28;121560;-79
2022/06/11 10:08:52;;;;;;;18.20;6.00;;;;;;;22.64;58.72;101616.59;4986018;28;122132;-79
2022/06/11 10:11:44;;;;;;;22.88;7.35;;;;;;;22.66;57.78;101613.28;4985271;28;121187;-79
2022/06/11 10:14:45;;;;;;;20.40;6.47;;;;;;;22.63;57.26;101617.09;4990890;28;121609;-79
2022/06/11 10:17:11;;;;;;;28.20;6.80;;;;;;;22.64;57.86;101619.38;4982284;28;121342;-80
2022/06/11 10:20:02;;;;;;;21.80;6.63;;;;;;;22.64;58.11;101611.00;4987295;28;121557;-78
2022/06/11 10:22:40;;;;;;;24.00;6.50;;;;;;;22.61;57.74;101616.84;4992158;28;121197;-79
2022/06/11 10:25:30;;;;;;;29.40;6.75;;;;;;;22.60;57.52;101626.53;4981632;28;121594;-79
2022/06/11 10:27:56;;;;;;;29.60;7.55;;;;;;;22.55;57.52;101622.47;4992096;28;121562;-79
2022/06/11 10:30:41;;;;;;;27.52;6.97;;;;;;;22.55;58.09;101619.69;4976612;28;123423;-79
2022/06/11 10:33:15;;;;;;;30.40;6.70;;;;;;;22.54;57.39;101620.19;4977453;28;121284;-79
2022/06/11 10:35:47;;;;;;;27.05;7.05;;;;;;;22.54;58.29;101623.00;4986416;28;121520;-79
2022/06/11 10:38:22;;;;;;;25.05;6.80;;;;;;;22.54;58.06;101632.13;4983345;28;121081;-79
2022/06/11 10:40:50;;;;;;;31.63;7.20;;;;;;;22.54;58.45;101632.13;5004320;28;121378;-79
2022/06/11 10:43:31;;;;;;;27.52;6.97;;;;;;;22.52;58.22;101625.53;4986286;28;121390;-79
2022/06/11 10:45:57;;;;;;;31.95;7.63;;;;;;;22.52;58.29;101626.28;4968616;28;123960;-78
2022/06/11 10:48:25;;;;;;;28.40;6.95;;;;;;;22.55;58.26;101625.28;4980608;28;121129;-79
2022/06/11 10:50:51;;;;;;;31.45;7.05;;;;;;;22.56;58.06;101626.78;4989812;28;122801;-78
2022/06/11 10:53:30;;;;;;;30.42;7.10;;;;;;;22.59;58.27;101625.00;4970078;28;121079;-79
2022/06/11 10:56:18;;;;;;;28.42;6.95;;;;;;;22.64;58.23;101627.03;4983554;28;121345;-79
2022/06/11 10:58:59;;;;;;;32.33;7.20;;;;;;;22.62;58.72;101627.53;4984327;28;122066;-78
2022/06/11 11:01:33;;;;;;;27.30;6.40;;;;;;;22.68;59.03;101636.66;4985547;28;121338;-79
2022/06/11 11:04:24;;;;;;;31.35;7.55;;;;;;;22.73;58.32;101623.19;4982003;28;121316;-79
2022/06/11 11:07:10;;;;;;;36.30;7.70;;;;;;;22.78;57.92;101633.59;4976358;28;121817;-79
2022/06/11 11:09:36;;;;;;;24.77;6.55;;;;;;;22.73;58.19;101620.41;4994963;28;121289;-79
2022/06/11 11:12:07;;;;;;;30.42;7.38;;;;;;;22.77;57.39;101623.69;4980057;28;121697;-79
2022/06/11 11:14:39;;;;;;;33.78;7.25;;;;;;;22.73;57.32;101620.41;4995251;28;121567;-79
2022/06/11 11:17:26;;;;;;;36.70;7.80;;;;;;;22.80;57.58;101625.47;4994512;28;121622;-79
2022/06/11 11:22:54;;;;;;;27.98;7.25;;;;;;;22.79;57.44;101623.94;4992470;28;121590;-79
2022/06/11 11:25:35;;;;;;;31.10;7.65;;;;;;;22.87;57.61;101636.13;4993555;28;121900;-79
2022/06/11 11:28:01;;;;;;;29.17;7.18;;;;;;;22.92;57.56;101633.31;4993364;28;121469;-80
2022/06/11 11:30:32;;;;;;;30.75;6.97;;;;;;;22.96;57.10;101642.22;4990354;28;121853;-80
2022/06/11 11:33:21;;;;;;;30.27;6.88;;;;;;;22.95;57.08;101628.75;4995644;28;121856;-79